createdAt,value
2018-03-30T00:00:45.571Z,41.55
2018-03-30T00:01:45.012Z,41.79
2018-03-30T00:02:44.973Z,41.62
2018-03-30T00:03:44.964Z,41.59
2018-03-30T00:04:44.998Z,41.74
2018-03-30T00:05:44.980Z,41.65
2018-03-30T00:06:44.988Z,41.54
2018-03-30T00:07:44.986Z,41.68
2018-03-30T00:08:45.040Z,41.67
2018-03-30T00:09:45.131Z,41.59
2018-03-30T00:10:45.032Z,41.74
2018-03-30T00:11:44.984Z,41.71
2018-03-30T00:12:44.954Z,41.57
2018-03-30T00:13:44.977Z,41.75
2018-03-30T00:14:45.102Z,41.64
2018-03-30T00:15:45.062Z,41.6
2018-03-30T00:16:45.015Z,41.82
2018-03-30T00:17:44.993Z,41.68
2018-03-30T00:18:45.024Z,41.61
2018-03-30T00:19:44.964Z,41.85
2018-03-30T00:20:44.989Z,41.67
2018-03-30T00:21:45.042Z,41.63
2018-03-30T00:22:44.987Z,41.78
2018-03-30T00:23:44.996Z,41.68
2018-03-30T00:24:44.999Z,41.58
2018-03-30T00:25:45.003Z,41.82
2018-03-30T00:26:45.015Z,41.65
2018-03-30T00:27:45.018Z,41.59
2018-03-30T00:28:44.963Z,41.75
2018-03-30T00:29:44.976Z,41.64
2018-03-30T00:30:45.069Z,41.59
2018-03-30T00:31:44.987Z,41.81
2018-03-30T00:32:44.967Z,41.68
2018-03-30T00:33:44.977Z,41.6
2018-03-30T00:34:45.064Z,41.83
2018-03-30T00:35:44.993Z,41.66
2018-03-30T00:36:44.978Z,41.58
2018-03-30T00:37:44.964Z,41.7
2018-03-30T00:38:44.962Z,41.69
2018-03-30T00:39:44.994Z,41.58
2018-03-30T00:40:44.986Z,41.79
2018-03-30T00:41:44.982Z,41.65
2018-03-30T00:42:45.017Z,41.6
2018-03-30T00:43:44.984Z,41.81
2018-03-30T00:44:44.968Z,41.7
2018-03-30T00:45:45.028Z,41.55
2018-03-30T00:46:44.988Z,41.81
2018-03-30T00:47:44.967Z,41.69
2018-03-30T00:48:44.960Z,41.58
2018-03-30T00:49:44.984Z,41.82
2018-03-30T00:50:45.042Z,41.66
2018-03-30T00:51:44.975Z,41.58
2018-03-30T00:52:44.973Z,41.81
2018-03-30T00:53:44.955Z,41.67
2018-03-30T00:54:44.996Z,41.61
2018-03-30T00:55:45.230Z,41.73
2018-03-30T00:56:44.971Z,41.72
2018-03-30T00:57:44.965Z,41.59
2018-03-30T00:58:45.016Z,41.87
2018-03-30T00:59:44.964Z,41.68
2018-03-30T01:00:44.970Z,41.61
2018-03-30T01:01:44.972Z,41.85
2018-03-30T01:02:44.955Z,41.66
2018-03-30T01:03:44.939Z,41.65
2018-03-30T01:04:44.976Z,41.78
2018-03-30T01:05:45.001Z,41.76
2018-03-30T01:06:44.944Z,41.62
2018-03-30T01:07:45.034Z,41.79
2018-03-30T01:08:44.987Z,41.69
2018-03-30T01:09:44.958Z,41.66
2018-03-30T01:10:44.967Z,41.84
2018-03-30T01:11:44.936Z,41.69
2018-03-30T01:12:44.963Z,41.58
2018-03-30T01:13:44.971Z,41.75
2018-03-30T01:14:44.974Z,41.68
2018-03-30T01:15:44.937Z,41.63
2018-03-30T01:16:44.969Z,41.83
2018-03-30T01:17:44.999Z,41.7
2018-03-30T01:18:44.966Z,41.63
2018-03-30T01:19:44.960Z,41.87
2018-03-30T01:20:44.935Z,41.7
2018-03-30T01:21:44.963Z,41.65
2018-03-30T01:22:44.978Z,41.77
2018-03-30T01:23:44.993Z,41.69
2018-03-30T01:24:44.970Z,41.63
2018-03-30T01:25:44.950Z,41.83
2018-03-30T01:26:44.967Z,41.65
2018-03-30T01:27:45.008Z,41.61
2018-03-30T01:28:45.011Z,41.8
2018-03-30T01:29:44.972Z,41.69
2018-03-30T01:30:44.994Z,41.6
2018-03-30T01:31:44.959Z,41.77
2018-03-30T01:32:44.980Z,41.71
2018-03-30T01:33:44.960Z,41.64
2018-03-30T01:34:44.937Z,41.79
2018-03-30T01:35:44.961Z,41.67
2018-03-30T01:36:44.949Z,41.62
2018-03-30T01:37:44.953Z,41.73
2018-03-30T01:38:44.943Z,41.72
2018-03-30T01:39:44.950Z,41.66
2018-03-30T01:40:44.951Z,41.81
2018-03-30T01:41:44.951Z,41.7
2018-03-30T01:42:44.952Z,41.58
2018-03-30T01:43:44.996Z,41.78
2018-03-30T01:44:44.935Z,41.66
2018-03-30T01:45:44.985Z,41.6
2018-03-30T01:46:44.988Z,41.78
2018-03-30T01:47:44.944Z,41.67
2018-03-30T01:48:44.981Z,41.59
2018-03-30T01:49:44.945Z,41.69
2018-03-30T01:50:44.971Z,41.71
2018-03-30T01:51:44.937Z,41.62
2018-03-30T01:52:44.974Z,41.77
2018-03-30T01:53:44.991Z,41.67
2018-03-30T01:54:44.963Z,41.56
2018-03-30T01:55:44.980Z,41.74
2018-03-30T01:56:44.946Z,41.65
2018-03-30T01:57:44.998Z,41.53
2018-03-30T01:58:44.947Z,41.73
2018-03-30T01:59:45.010Z,41.55
2018-03-30T02:00:44.960Z,41.56
2018-03-30T02:01:44.987Z,41.65
2018-03-30T02:02:44.935Z,41.64
2018-03-30T02:03:45.044Z,41.49
2018-03-30T02:04:44.941Z,41.69
2018-03-30T02:05:44.985Z,41.62
2018-03-30T02:06:45.032Z,41.49
2018-03-30T02:07:45.010Z,41.65
2018-03-30T02:08:44.952Z,41.59
2018-03-30T02:09:45.018Z,41.51
2018-03-30T02:10:45.044Z,41.71
2018-03-30T02:11:44.950Z,41.6
2018-03-30T02:12:44.971Z,41.55
2018-03-30T02:13:44.935Z,41.67
2018-03-30T02:14:44.962Z,41.59
2018-03-30T02:15:45.064Z,41.52
2018-03-30T02:16:45.068Z,41.7
2018-03-30T02:17:44.937Z,41.56
2018-03-30T02:18:44.966Z,41.46
2018-03-30T02:19:45.202Z,41.72
2018-03-30T02:20:44.931Z,41.56
2018-03-30T02:21:44.975Z,41.47
2018-03-30T02:22:44.933Z,41.61
2018-03-30T02:23:44.971Z,41.57
2018-03-30T02:24:44.965Z,41.48
2018-03-30T02:25:44.920Z,41.7
2018-03-30T02:26:44.937Z,41.57
2018-03-30T02:27:44.944Z,41.45
2018-03-30T02:28:44.926Z,41.63
2018-03-30T02:29:45.023Z,41.57
2018-03-30T02:30:44.989Z,41.55
2018-03-30T02:31:44.948Z,41.66
2018-03-30T02:32:44.956Z,41.64
2018-03-30T02:33:44.956Z,41.46
2018-03-30T02:34:44.954Z,41.68
2018-03-30T02:35:44.977Z,41.56
2018-03-30T02:36:44.960Z,41.5
2018-03-30T02:37:44.950Z,41.66
2018-03-30T02:38:44.990Z,41.59
2018-03-30T02:39:45.031Z,41.49
2018-03-30T02:40:44.973Z,41.66
2018-03-30T02:41:44.951Z,41.62
2018-03-30T02:42:44.924Z,41.44
2018-03-30T02:43:44.932Z,41.65
2018-03-30T02:44:44.972Z,41.59
2018-03-30T02:45:44.962Z,41.51
2018-03-30T02:46:44.979Z,41.63
2018-03-30T02:47:44.946Z,41.55
2018-03-30T02:48:44.951Z,41.44
2018-03-30T02:49:44.998Z,41.66
2018-03-30T02:50:44.943Z,41.61
2018-03-30T02:51:44.955Z,41.48
2018-03-30T02:52:44.957Z,41.64
2018-03-30T02:53:44.948Z,41.62
2018-03-30T02:54:45.269Z,41.45
2018-03-30T02:55:44.966Z,41.65
2018-03-30T02:56:44.993Z,41.6
2018-03-30T02:57:44.917Z,41.51
2018-03-30T02:58:44.934Z,41.69
2018-03-30T02:59:45.024Z,41.55
2018-03-30T03:00:44.954Z,41.47
2018-03-30T03:01:44.930Z,41.61
2018-03-30T03:02:44.940Z,41.55
2018-03-30T03:03:44.929Z,41.5
2018-03-30T03:04:44.956Z,41.68
2018-03-30T03:05:44.969Z,41.56
2018-03-30T03:06:44.938Z,41.5
2018-03-30T03:07:44.943Z,41.68
2018-03-30T03:08:44.939Z,41.54
2018-03-30T03:09:44.933Z,41.42
2018-03-30T03:10:44.904Z,41.6
2018-03-30T03:11:44.925Z,41.63
2018-03-30T03:12:44.897Z,41.44
2018-03-30T03:13:44.921Z,41.61
2018-03-30T03:14:44.935Z,41.56
2018-03-30T03:15:44.915Z,41.44
2018-03-30T03:16:44.942Z,41.64
2018-03-30T03:17:44.933Z,41.56
2018-03-30T03:18:44.926Z,41.42
2018-03-30T03:19:44.928Z,41.67
2018-03-30T03:20:44.949Z,41.54
2018-03-30T03:21:44.992Z,41.51
2018-03-30T03:22:44.922Z,41.59
2018-03-30T03:23:44.952Z,41.54
2018-03-30T03:24:44.943Z,41.48
2018-03-30T03:25:44.923Z,41.66
2018-03-30T03:26:45.218Z,41.56
2018-03-30T03:27:44.926Z,41.45
2018-03-30T03:28:45.319Z,41.58
2018-03-30T03:29:44.944Z,41.59
2018-03-30T03:30:44.976Z,41.46
2018-03-30T03:31:44.964Z,41.66
2018-03-30T03:32:44.936Z,41.58
2018-03-30T03:33:44.918Z,41.46
2018-03-30T03:34:44.907Z,41.65
2018-03-30T03:35:44.915Z,41.57
2018-03-30T03:36:44.924Z,41.43
2018-03-30T03:37:44.936Z,41.64
2018-03-30T03:38:45.091Z,41.53
2018-03-30T03:39:44.908Z,41.43
2018-03-30T03:40:44.903Z,41.64
2018-03-30T03:41:44.946Z,41.53
2018-03-30T03:42:44.924Z,41.43
2018-03-30T03:43:44.899Z,41.66
2018-03-30T03:44:44.917Z,41.58
2018-03-30T03:45:44.907Z,41.46
2018-03-30T03:46:44.935Z,41.6
2018-03-30T03:47:44.929Z,41.53
2018-03-30T03:48:44.899Z,41.44
2018-03-30T03:49:44.912Z,41.59
2018-03-30T03:50:44.907Z,41.51
2018-03-30T03:51:44.925Z,41.46
2018-03-30T03:52:44.954Z,41.69
2018-03-30T03:53:44.905Z,41.59
2018-03-30T03:54:44.898Z,41.5
2018-03-30T03:55:44.903Z,41.74
2018-03-30T03:56:44.945Z,41.65
2018-03-30T03:57:44.927Z,41.5
2018-03-30T03:58:44.908Z,41.65
2018-03-30T03:59:44.897Z,41.63
2018-03-30T04:00:44.908Z,41.5
2018-03-30T04:01:44.980Z,41.72
2018-03-30T04:02:44.960Z,41.63
2018-03-30T04:03:44.906Z,41.55
2018-03-30T04:04:44.941Z,41.67
2018-03-30T04:05:44.913Z,41.61
2018-03-30T04:06:44.897Z,41.54
2018-03-30T04:07:44.952Z,41.67
2018-03-30T04:08:44.912Z,41.61
2018-03-30T04:09:44.919Z,41.6
2018-03-30T04:10:44.923Z,41.74
2018-03-30T04:11:44.925Z,41.73
2018-03-30T04:12:44.918Z,41.57
2018-03-30T04:13:44.910Z,41.69
2018-03-30T04:14:44.871Z,41.62
2018-03-30T04:15:44.937Z,41.53
2018-03-30T04:16:45.027Z,41.6
2018-03-30T04:17:45.092Z,41.58
2018-03-30T04:18:44.927Z,41.49
2018-03-30T04:19:44.897Z,41.5
2018-03-30T04:20:44.927Z,41.44
2018-03-30T04:21:45.071Z,41.41
2018-03-30T04:22:44.925Z,41.43
2018-03-30T04:23:44.897Z,41.42
2018-03-30T04:24:44.905Z,41.39
2018-03-30T04:25:44.920Z,41.45
2018-03-30T04:26:44.958Z,41.34
2018-03-30T04:27:44.902Z,41.24
2018-03-30T04:28:44.895Z,41.23
2018-03-30T04:29:44.887Z,41.4
2018-03-30T04:30:44.903Z,41.37
2018-03-30T04:31:45.057Z,41.29
2018-03-30T04:32:44.961Z,41.36
2018-03-30T04:33:44.869Z,41.28
2018-03-30T04:34:44.886Z,41.38
2018-03-30T04:35:44.891Z,41.42
2018-03-30T04:36:44.925Z,41.35
2018-03-30T04:37:44.922Z,41.42
2018-03-30T04:38:44.900Z,41.38
2018-03-30T04:39:44.882Z,41.37
2018-03-30T04:40:44.914Z,41.38
2018-03-30T04:41:44.911Z,41.26
2018-03-30T04:42:44.907Z,41.32
2018-03-30T04:43:44.891Z,41.42
2018-03-30T04:44:44.886Z,41.34
2018-03-30T04:45:44.886Z,41.27
2018-03-30T04:46:44.898Z,41.34
2018-03-30T04:47:44.934Z,41.35
2018-03-30T04:48:44.881Z,41.3
2018-03-30T04:49:44.875Z,41.35
2018-03-30T04:50:44.882Z,41.32
2018-03-30T04:51:44.928Z,41.32
2018-03-30T04:52:44.937Z,41.35
2018-03-30T04:53:44.901Z,41.43
2018-03-30T04:54:44.939Z,41.36
2018-03-30T04:55:44.900Z,41.27
2018-03-30T04:56:44.906Z,41.4
2018-03-30T04:57:44.935Z,41.34
2018-03-30T04:58:44.898Z,41.34
2018-03-30T04:59:44.914Z,41.32
2018-03-30T05:00:44.868Z,41.28
2018-03-30T05:01:44.917Z,41.38
2018-03-30T05:02:44.910Z,41.29
2018-03-30T05:03:44.868Z,41.33
2018-03-30T05:04:44.878Z,41.3
2018-03-30T05:05:44.878Z,41.33
2018-03-30T05:06:44.950Z,41.31
2018-03-30T05:07:44.899Z,41.31
2018-03-30T05:08:44.891Z,41.32
2018-03-30T05:09:44.931Z,41.26
2018-03-30T05:10:44.881Z,41.33
2018-03-30T05:11:44.900Z,41.27
2018-03-30T05:12:44.912Z,41.31
2018-03-30T05:13:44.881Z,41.28
2018-03-30T05:14:44.881Z,41.26
2018-03-30T05:15:44.884Z,41.29
2018-03-30T05:16:44.898Z,41.26
2018-03-30T05:17:44.873Z,41.26
2018-03-30T05:18:44.911Z,41.26
2018-03-30T05:19:44.872Z,41.22
2018-03-30T05:20:44.879Z,41.26
2018-03-30T05:21:44.949Z,41.3
2018-03-30T05:22:44.941Z,41.27
2018-03-30T05:23:44.887Z,41.25
2018-03-30T05:24:44.930Z,41.25
2018-03-30T05:25:44.870Z,41.18
2018-03-30T05:26:44.908Z,41.23
2018-03-30T05:27:44.885Z,41.21
2018-03-30T05:28:44.879Z,41.2
2018-03-30T05:29:44.871Z,41.21
2018-03-30T05:30:44.888Z,41.23
2018-03-30T05:31:44.927Z,41.18
2018-03-30T05:32:44.866Z,41.2
2018-03-30T05:33:45.028Z,41.19
2018-03-30T05:34:44.878Z,41.13
2018-03-30T05:35:44.869Z,41.21
2018-03-30T05:36:44.873Z,41.22
2018-03-30T05:37:44.870Z,41.26
2018-03-30T05:38:44.876Z,41.23
2018-03-30T05:39:45.244Z,41.25
2018-03-30T05:40:44.912Z,41.2
2018-03-30T05:41:44.863Z,41.19
2018-03-30T05:42:44.858Z,41.18
2018-03-30T05:43:44.889Z,41.17
2018-03-30T05:44:44.868Z,41.16
2018-03-30T05:45:44.870Z,41.15
2018-03-30T05:46:44.950Z,41.15
2018-03-30T05:47:44.859Z,41.16
2018-03-30T05:48:44.852Z,41.18
2018-03-30T05:49:44.875Z,41.16
2018-03-30T05:50:44.877Z,41.15
2018-03-30T05:51:44.874Z,41.15
2018-03-30T05:52:44.891Z,41.11
2018-03-30T05:53:44.867Z,41.17
2018-03-30T05:54:44.846Z,41.19
2018-03-30T05:55:45.155Z,41.15
2018-03-30T05:56:44.853Z,41.12
2018-03-30T05:57:44.910Z,41.14
2018-03-30T05:58:44.905Z,41.1
2018-03-30T05:59:44.908Z,41.09
2018-03-30T06:00:44.892Z,41.15
2018-03-30T06:01:44.873Z,41.12
2018-03-30T06:02:44.886Z,41.13
2018-03-30T06:03:44.893Z,41.07
2018-03-30T06:04:44.861Z,41.06
2018-03-30T06:05:44.908Z,41.1
2018-03-30T06:06:44.907Z,41.06
2018-03-30T06:07:44.858Z,41.08
2018-03-30T06:08:44.888Z,41.09
2018-03-30T06:09:44.854Z,41.04
2018-03-30T06:10:44.893Z,41.04
2018-03-30T06:11:44.891Z,41.05
2018-03-30T06:12:44.856Z,41.04
2018-03-30T06:13:44.888Z,41.02
2018-03-30T06:14:44.868Z,41.06
2018-03-30T06:15:44.852Z,41.05
2018-03-30T06:16:44.950Z,41.06
2018-03-30T06:17:44.972Z,41.04
2018-03-30T06:18:44.985Z,41.07
2018-03-30T06:19:44.856Z,41.06
2018-03-30T06:20:44.937Z,41.05
2018-03-30T06:21:44.904Z,41.03
2018-03-30T06:22:44.901Z,41.06
2018-03-30T06:23:44.847Z,41.06
2018-03-30T06:24:44.856Z,41.05
2018-03-30T06:25:44.855Z,41
2018-03-30T06:26:45.071Z,41.01
2018-03-30T06:27:44.869Z,40.99
2018-03-30T06:28:44.941Z,40.98
2018-03-30T06:29:44.864Z,41.01
2018-03-30T06:30:44.893Z,40.99
2018-03-30T06:31:44.858Z,40.98
2018-03-30T06:32:45.003Z,40.97
2018-03-30T06:33:44.836Z,41
2018-03-30T06:34:44.857Z,40.98
2018-03-30T06:35:44.876Z,40.96
2018-03-30T06:36:44.856Z,40.94
2018-03-30T06:37:44.881Z,40.95
2018-03-30T06:38:44.859Z,40.98
2018-03-30T06:39:44.875Z,40.98
2018-03-30T06:40:44.873Z,40.98
2018-03-30T06:41:44.857Z,40.94
2018-03-30T06:42:44.862Z,40.95
2018-03-30T06:43:44.849Z,40.96
2018-03-30T06:44:44.864Z,40.93
2018-03-30T06:45:44.880Z,40.93
2018-03-30T06:46:44.873Z,40.94
2018-03-30T06:47:45.110Z,40.89
2018-03-30T06:48:44.851Z,40.94
2018-03-30T06:49:44.840Z,40.95
2018-03-30T06:50:44.855Z,40.87
2018-03-30T06:51:44.840Z,40.88
2018-03-30T06:52:44.889Z,40.88
2018-03-30T06:53:44.865Z,40.88
2018-03-30T06:54:44.857Z,40.9
2018-03-30T06:55:44.882Z,40.89
2018-03-30T06:56:44.890Z,40.88
2018-03-30T06:57:45.270Z,40.93
2018-03-30T06:58:44.924Z,40.89
2018-03-30T06:59:44.858Z,40.89
2018-03-30T07:00:44.859Z,40.86
2018-03-30T07:01:44.842Z,40.85
2018-03-30T07:02:44.912Z,40.86
2018-03-30T07:03:44.906Z,40.82
2018-03-30T07:04:44.862Z,40.87
2018-03-30T07:05:44.860Z,40.84
2018-03-30T07:06:44.807Z,40.84
2018-03-30T07:07:44.854Z,40.88
2018-03-30T07:08:44.851Z,40.81
2018-03-30T07:09:44.828Z,40.84
2018-03-30T07:10:44.852Z,40.82
2018-03-30T07:11:44.839Z,40.86
2018-03-30T07:12:44.995Z,40.82
2018-03-30T07:13:44.836Z,40.81
2018-03-30T07:14:44.840Z,40.82
2018-03-30T07:15:44.852Z,40.81
2018-03-30T07:16:44.843Z,40.81
2018-03-30T07:17:44.855Z,40.77
2018-03-30T07:18:44.862Z,40.81
2018-03-30T07:19:44.837Z,40.82
2018-03-30T07:20:44.834Z,40.79
2018-03-30T07:21:44.848Z,40.77
2018-03-30T07:22:44.842Z,40.73
2018-03-30T07:23:44.882Z,40.77
2018-03-30T07:24:44.829Z,40.78
2018-03-30T07:25:44.954Z,40.83
2018-03-30T07:26:44.840Z,40.74
2018-03-30T07:27:44.842Z,40.81
2018-03-30T07:28:44.829Z,40.76
2018-03-30T07:29:44.845Z,40.74
2018-03-30T07:30:44.826Z,40.75
2018-03-30T07:31:44.833Z,40.77
2018-03-30T07:32:44.831Z,40.76
2018-03-30T07:33:44.858Z,40.76
2018-03-30T07:34:44.881Z,40.75
2018-03-30T07:35:44.857Z,40.69
2018-03-30T07:36:44.818Z,40.74
2018-03-30T07:37:44.835Z,40.73
2018-03-30T07:38:45.013Z,40.67
2018-03-30T07:39:44.833Z,40.72
2018-03-30T07:40:44.824Z,40.69
2018-03-30T07:41:44.869Z,40.66
2018-03-30T07:42:44.828Z,40.71
2018-03-30T07:43:45.052Z,40.69
2018-03-30T07:44:44.824Z,40.68
2018-03-30T07:45:44.874Z,40.66
2018-03-30T07:46:44.881Z,40.68
2018-03-30T07:47:45.465Z,40.64
2018-03-30T07:48:44.836Z,40.63
2018-03-30T07:49:44.864Z,40.68
2018-03-30T07:50:44.838Z,40.73
2018-03-30T07:51:44.872Z,40.69
2018-03-30T07:52:44.839Z,40.7
2018-03-30T07:53:44.810Z,40.66
2018-03-30T07:54:44.856Z,40.73
2018-03-30T07:55:44.827Z,40.72
2018-03-30T07:56:44.820Z,40.69
2018-03-30T07:57:44.861Z,40.65
2018-03-30T07:58:44.834Z,40.66
2018-03-30T07:59:44.825Z,40.7
2018-03-30T08:00:44.873Z,40.68
2018-03-30T08:01:44.815Z,40.7
2018-03-30T08:02:44.820Z,40.69
2018-03-30T08:03:44.857Z,40.68
2018-03-30T08:04:44.905Z,40.65
2018-03-30T08:05:44.826Z,40.69
2018-03-30T08:06:44.856Z,40.67
2018-03-30T08:07:44.845Z,40.68
2018-03-30T08:08:44.838Z,40.69
2018-03-30T08:09:44.873Z,40.61
2018-03-30T08:10:44.856Z,40.67
2018-03-30T08:11:44.840Z,40.64
2018-03-30T08:12:44.840Z,40.59
2018-03-30T08:13:44.845Z,40.59
2018-03-30T08:14:44.989Z,40.6
2018-03-30T08:15:44.832Z,40.62
2018-03-30T08:16:44.947Z,40.59
2018-03-30T08:17:45.212Z,40.63
2018-03-30T08:18:45.251Z,40.64
2018-03-30T08:19:45.661Z,40.62
2018-03-30T08:20:44.811Z,40.62
2018-03-30T08:21:45.038Z,40.59
2018-03-30T08:22:44.846Z,40.67
2018-03-30T08:23:44.883Z,40.63
2018-03-30T08:24:44.817Z,40.6
2018-03-30T08:25:44.838Z,40.62
2018-03-30T08:26:44.895Z,40.58
2018-03-30T08:27:44.812Z,40.54
2018-03-30T08:28:44.848Z,40.61
2018-03-30T08:29:44.813Z,40.64
2018-03-30T08:30:44.844Z,40.52
2018-03-30T08:31:44.827Z,40.63
2018-03-30T08:32:45.271Z,40.62
2018-03-30T08:33:44.835Z,40.63
2018-03-30T08:34:44.913Z,40.58
2018-03-30T08:35:44.869Z,40.54
2018-03-30T08:36:44.859Z,40.57
2018-03-30T08:37:44.824Z,40.58
2018-03-30T08:38:45.251Z,40.57
2018-03-30T08:39:45.427Z,40.53
2018-03-30T08:40:44.814Z,40.59
2018-03-30T08:41:44.857Z,40.52
2018-03-30T08:42:44.811Z,40.55
2018-03-30T08:43:44.814Z,40.59
2018-03-30T08:44:44.896Z,40.56
2018-03-30T08:45:44.864Z,40.55
2018-03-30T08:46:44.815Z,40.55
2018-03-30T08:47:44.833Z,40.56
2018-03-30T08:48:44.884Z,40.51
2018-03-30T08:49:44.977Z,40.02
2018-03-30T08:50:44.815Z,39.09
2018-03-30T08:51:44.893Z,38.61
2018-03-30T08:52:44.830Z,39.2
2018-03-30T08:53:44.825Z,39.46
2018-03-30T08:54:44.879Z,40.25
2018-03-30T08:55:44.820Z,40.21
2018-03-30T08:56:44.916Z,40.35
2018-03-30T08:57:44.830Z,40.79
2018-03-30T08:58:44.837Z,40.81
2018-03-30T08:59:44.818Z,41.15
2018-03-30T09:00:44.846Z,40.94
2018-03-30T09:01:44.804Z,41.23
2018-03-30T09:02:44.819Z,40.99
2018-03-30T09:03:44.822Z,40.95
2018-03-30T09:04:44.833Z,41.09
2018-03-30T09:05:44.910Z,40.97
2018-03-30T09:06:45.702Z,41.19
2018-03-30T09:07:45.004Z,41.34
2018-03-30T09:08:44.813Z,41.1
2018-03-30T09:09:45.000Z,41.13
2018-03-30T09:10:45.079Z,41.52
2018-03-30T09:11:44.830Z,41.44
2018-03-30T09:12:45.055Z,41.62
2018-03-30T09:13:44.849Z,41.66
2018-03-30T09:14:44.817Z,41.39
2018-03-30T09:15:44.859Z,41.49
2018-03-30T09:16:44.810Z,41.75
2018-03-30T09:17:44.852Z,41.15
2018-03-30T09:18:44.812Z,41.45
2018-03-30T09:19:44.836Z,41.44
2018-03-30T09:20:44.856Z,41.34
2018-03-30T09:21:44.899Z,41.55
2018-03-30T09:22:44.831Z,41.67
2018-03-30T09:23:44.876Z,41.45
2018-03-30T09:24:45.198Z,41.57
2018-03-30T09:25:44.961Z,42.03
2018-03-30T09:26:48.047Z,42
2018-03-30T09:27:44.966Z,41.82
2018-03-30T09:28:44.900Z,41.6
2018-03-30T09:29:45.350Z,41.62
2018-03-30T09:30:44.955Z,41.4
2018-03-30T09:31:45.156Z,41.66
2018-03-30T09:32:46.716Z,41.64
2018-03-30T09:33:45.105Z,41.32
2018-03-30T09:34:45.185Z,41.25
2018-03-30T09:35:45.313Z,41.14
2018-03-30T09:36:45.217Z,41.56
2018-03-30T09:37:45.209Z,41.61
2018-03-30T09:38:48.717Z,41.17
2018-03-30T09:39:45.192Z,41.22
2018-03-30T09:40:45.157Z,41.47
2018-03-30T09:41:45.039Z,41.63
2018-03-30T09:42:45.118Z,41.51
2018-03-30T09:43:45.103Z,41.64
2018-03-30T09:44:45.191Z,41.73
2018-03-30T09:45:45.284Z,41.96
2018-03-30T09:46:45.154Z,41.68
2018-03-30T09:47:46.380Z,41.45
2018-03-30T09:48:45.797Z,41.64
2018-03-30T09:49:45.816Z,42.23
2018-03-30T09:50:45.054Z,42.06
2018-03-30T09:51:45.393Z,41.73
2018-03-30T09:52:47.128Z,41.99
2018-03-30T09:53:45.013Z,41.96
2018-03-30T09:54:45.658Z,42.12
2018-03-30T09:55:45.003Z,42.36
2018-03-30T09:56:45.228Z,42.2
2018-03-30T09:57:44.947Z,42.23
2018-03-30T09:58:45.038Z,41.68
2018-03-30T09:59:45.013Z,41.24
2018-03-30T10:00:44.867Z,41.37
2018-03-30T10:01:44.811Z,41.21
2018-03-30T10:02:44.828Z,40.97
2018-03-30T10:03:44.802Z,41.5
2018-03-30T10:04:44.834Z,41.2
2018-03-30T10:05:44.785Z,41.09
2018-03-30T10:06:44.782Z,40.74
2018-03-30T10:07:44.900Z,40.57
2018-03-30T10:08:44.812Z,40.54
2018-03-30T10:09:44.772Z,40.51
2018-03-30T10:10:44.797Z,40.56
2018-03-30T10:11:45.297Z,40.84
2018-03-30T10:12:44.846Z,41.12
2018-03-30T10:13:44.805Z,41.17
2018-03-30T10:14:44.792Z,41.15
2018-03-30T10:15:44.856Z,41.1
2018-03-30T10:16:44.800Z,40.87
2018-03-30T10:17:44.820Z,40.87
2018-03-30T10:18:44.873Z,41.05
2018-03-30T10:19:44.907Z,41.07
2018-03-30T10:20:44.919Z,40.76
2018-03-30T10:21:44.865Z,41.09
2018-03-30T10:22:44.830Z,40.78
2018-03-30T10:23:44.788Z,41.05
2018-03-30T10:24:44.777Z,40.89
2018-03-30T10:25:44.863Z,40.87
2018-03-30T10:26:44.799Z,40.78
2018-03-30T10:27:44.957Z,41.13
2018-03-30T10:28:44.791Z,41.5
2018-03-30T10:29:44.855Z,41.31
2018-03-30T10:30:44.825Z,41.27
2018-03-30T10:31:44.786Z,41.53
2018-03-30T10:32:44.877Z,41.62
2018-03-30T10:33:45.091Z,41.44
2018-03-30T10:34:44.790Z,41.4
2018-03-30T10:35:44.792Z,40.58
2018-03-30T10:36:44.847Z,40.62
2018-03-30T10:37:44.876Z,40.61
2018-03-30T10:38:44.863Z,40.61
2018-03-30T10:39:44.782Z,41.09
2018-03-30T10:40:44.821Z,41.25
2018-03-30T10:41:44.786Z,41.45
2018-03-30T10:42:44.758Z,41.15
2018-03-30T10:43:44.800Z,41.24
2018-03-30T10:44:44.802Z,41.39
2018-03-30T10:45:44.762Z,41.05
2018-03-30T10:46:44.824Z,40.79
2018-03-30T10:47:44.816Z,40.76
2018-03-30T10:48:45.251Z,40.7
2018-03-30T10:49:44.820Z,40.7
2018-03-30T10:50:44.821Z,40.95
2018-03-30T10:51:44.821Z,41.22
2018-03-30T10:52:44.830Z,40.9
2018-03-30T10:53:44.762Z,41.01
2018-03-30T10:54:44.862Z,41.07
2018-03-30T10:55:44.833Z,40.48
2018-03-30T10:56:44.788Z,40.37
2018-03-30T10:57:44.803Z,40.61
2018-03-30T10:58:44.794Z,40.43
2018-03-30T10:59:44.790Z,40.46
2018-03-30T11:00:44.927Z,40.53
2018-03-30T11:01:44.764Z,40.49
2018-03-30T11:02:44.780Z,40.52
2018-03-30T11:03:44.810Z,40.52
2018-03-30T11:04:44.776Z,40.5
2018-03-30T11:05:44.891Z,40.51
2018-03-30T11:06:44.825Z,40.53
2018-03-30T11:07:44.789Z,40.47
2018-03-30T11:08:44.788Z,40.4
2018-03-30T11:09:44.847Z,40.49
2018-03-30T11:10:44.784Z,40.39
2018-03-30T11:11:44.830Z,40.4
2018-03-30T11:12:44.785Z,40.44
2018-03-30T11:13:44.780Z,40.34
2018-03-30T11:14:44.785Z,40.37
2018-03-30T11:15:44.849Z,40.48
2018-03-30T11:16:44.810Z,40.41
2018-03-30T11:17:44.761Z,40.42
2018-03-30T11:18:44.766Z,40.5
2018-03-30T11:19:44.772Z,40.87
2018-03-30T11:20:44.765Z,40.56
2018-03-30T11:21:44.793Z,40.54
2018-03-30T11:22:44.773Z,40.5
2018-03-30T11:23:44.778Z,40.59
2018-03-30T11:24:44.776Z,40.79
2018-03-30T11:25:44.782Z,40.81
2018-03-30T11:26:44.800Z,40.85
2018-03-30T11:27:44.796Z,40.81
2018-03-30T11:28:44.761Z,40.91
2018-03-30T11:29:44.760Z,40.96
2018-03-30T11:30:44.767Z,40.85
2018-03-30T11:31:44.787Z,40.97
2018-03-30T11:32:44.761Z,40.91
2018-03-30T11:33:44.764Z,40.91
2018-03-30T11:34:44.825Z,40.97
2018-03-30T11:35:44.779Z,40.92
2018-03-30T11:36:44.931Z,40.87
2018-03-30T11:37:44.826Z,40.99
2018-03-30T11:38:44.755Z,40.96
2018-03-30T11:39:44.829Z,40.91
2018-03-30T11:40:44.838Z,40.92
2018-03-30T11:41:44.803Z,40.94
2018-03-30T11:42:44.782Z,40.91
2018-03-30T11:43:44.764Z,40.92
2018-03-30T11:44:45.315Z,40.88
2018-03-30T11:45:44.782Z,40.81
2018-03-30T11:46:44.841Z,40.92
2018-03-30T11:47:44.767Z,40.87
2018-03-30T11:48:44.771Z,40.83
2018-03-30T11:49:44.770Z,40.91
2018-03-30T11:50:44.756Z,40.9
2018-03-30T11:51:44.815Z,40.85
2018-03-30T11:52:44.758Z,40.9
2018-03-30T11:53:44.760Z,40.87
2018-03-30T11:54:44.780Z,40.89
2018-03-30T11:55:44.829Z,40.9
2018-03-30T11:56:44.777Z,40.89
2018-03-30T11:57:44.770Z,40.84
2018-03-30T11:58:44.829Z,40.88
2018-03-30T11:59:44.752Z,40.9
2018-03-30T12:00:44.757Z,40.86
2018-03-30T12:01:44.777Z,40.91
2018-03-30T12:02:44.768Z,40.88
2018-03-30T12:03:44.745Z,40.88
2018-03-30T12:04:44.746Z,40.93
2018-03-30T12:05:44.814Z,40.84
2018-03-30T12:06:44.780Z,40.85
2018-03-30T12:07:44.752Z,40.91
2018-03-30T12:08:44.754Z,40.93
2018-03-30T12:09:44.745Z,40.87
2018-03-30T12:10:44.735Z,40.9
2018-03-30T12:11:44.856Z,40.9
2018-03-30T12:12:44.740Z,40.84
2018-03-30T12:13:44.740Z,40.91
2018-03-30T12:14:44.764Z,40.87
2018-03-30T12:15:44.755Z,40.84
2018-03-30T12:16:44.835Z,40.88
2018-03-30T12:17:44.779Z,40.9
2018-03-30T12:18:44.745Z,40.86
2018-03-30T12:19:44.768Z,40.94
2018-03-30T12:20:44.851Z,40.91
2018-03-30T12:21:44.879Z,40.89
2018-03-30T12:22:44.752Z,40.95
2018-03-30T12:23:44.755Z,40.86
2018-03-30T12:24:44.776Z,40.86
2018-03-30T12:25:44.748Z,40.91
2018-03-30T12:26:44.758Z,40.9
2018-03-30T12:27:44.813Z,40.82
2018-03-30T12:28:44.732Z,40.91
2018-03-30T12:29:44.740Z,40.78
2018-03-30T12:30:44.820Z,38.99
2018-03-30T12:31:44.756Z,39.93
2018-03-30T12:32:44.760Z,40.35
2018-03-30T12:33:44.773Z,40.46
2018-03-30T12:34:44.748Z,40.78
2018-03-30T12:35:44.757Z,40.51
2018-03-30T12:36:44.810Z,40.77
2018-03-30T12:37:44.781Z,41.01
2018-03-30T12:38:44.737Z,41.23
2018-03-30T12:39:44.765Z,41.14
2018-03-30T12:40:44.761Z,41.46
2018-03-30T12:41:44.774Z,41.17
2018-03-30T12:42:44.809Z,41.15
2018-03-30T12:43:44.768Z,41.46
2018-03-30T12:44:44.777Z,41.19
2018-03-30T12:45:44.757Z,41.17
2018-03-30T12:46:45.045Z,41.4
2018-03-30T12:47:44.783Z,41.39
2018-03-30T12:48:44.803Z,41.3
2018-03-30T12:49:44.748Z,41.4
2018-03-30T12:50:44.727Z,41.21
2018-03-30T12:51:44.736Z,41.26
2018-03-30T12:52:44.742Z,41.35
2018-03-30T12:53:44.770Z,41.12
2018-03-30T12:54:44.837Z,41.12
2018-03-30T12:55:44.749Z,41.16